Archival Weather

Sydney Intl

Sydney, Australia (YSSY)

Report from: Friday, September 22, 2023 10:00 AM AEST
Current time: Sunday, February 25, 2024 3:16 AM AEDT

Current weather – Weather history – Daily summaries
Weather forecast

Present weatherLight rain showers
Temperature15.0°C (59.0°F)
Dew point11.0°C (51.8°F)
Winds 12 kts (6.2 m/s, 13.8 mph) South-Southeast (160°)
Visibility6.2 mi. (10 km)
Clouds Scattered clouds 2,700 ft. (823 m)
Scattered clouds 3,500 ft. (1,067 m)
Altimeter30.39 in.Hg (1029 mB)
Relative humidity77 %
Density altitude-345 ft. (-105 m)
Flight conditions Visual Meteorological Conditions
Raw dataYSSY 220000Z 16012KT 9999 -SHRA SCT027 SCT035 15/11 Q1029 RF00.2/000.6
An error has occurred. This application may no longer respond until reloaded. Reload 🗙